Terminal Aerodrome Forecast
Issued by NWS Charleston, WV

Current Version | Previous Version | Graphics & Text | Print | Product List | Glossary On
Versions: 1 2 3 4 5 6 7 8 9 10 11 12 13 14 15 16 17 18 19 20 21 22 23
243
FTUS41 KRLX 212339
TAFPKB
TAF
KPKB 212339Z 2200/2224 28005KT P6SM FEW050
     FM220800 VRB03KT 5SM BR SKC
     FM221300 28004KT P6SM FEW045
     FM221700 30005KT P6SM FEW060=

USA.gov is the U.S. government's official web portal to all federal, state and local government web resources and services.